Disclaimer

Please do not use the information listed here in-flight or in-navigation, as they are not provided to us by the airports but are provided by volunteers, so they might be outdated.

Search


Regions


Airport information page

Radio informations:
Tower (TWR) - 118.6 MHz
Ground (GND) - 121.725 MHz
Approach (APP) - 119.2 MHz

Airport informations:
Latitude: 21° 42' 07.76" N
Longitude: 095° 58' 40.54" E
Elevation: 300 feet - 91 meters
Operating hours: 24 hour operations
Operating agency: Civil government, landing fees and diplomatic clearance may be required
Timezone: UTC+6:30
Fuel: Jet A, without icing inhibitor.

Jet A1, without icing nhibitor.

Runway information:
17/35 - 14003 x 200 feet< - >4268 x 61 meters

Recent METARs:
VYMD 151030Z 27002KT 8000 SCT020 30/18 Q1009
VYMD 151130Z 36002KT 5000 HZ BKN020 FEW025CB FEW120 28/20 Q1009
VYMD 151130Z 36002KT 5000 HZ BKN020 FEW025CB FEW120 28/20 Q1009

Airport on the map: